Time;durP1;ratioP1;P1;durP2;ratioP2;P2;SDS_P1;SDS_P2;PMS_P1;PMS_P2;Temp;Humidity;BMP_temperature;BMP_pressure;BME280_temperature;BME280_humidity;BME280_pressure;Samples;Min_cycle;Max_cycle;Signal;HPM_P1;HPM_P2
2023/11/15 00:00:11;;;;;;;6.03;3.03;;;;;;;;;;5069208;28;20173;-55
2023/11/15 00:02:37;;;;;;;6.97;2.90;;;;;;;;;;5068172;28;20552;-56
2023/11/15 00:05:04;;;;;;;5.67;2.90;;;;;;;;;;5069355;28;20172;-55
2023/11/15 00:07:33;;;;;;;4.03;2.63;;;;;;;;;;5066738;28;20252;-55
2023/11/15 00:09:59;;;;;;;3.60;2.83;;;;;;;;;;5069748;28;20172;-55
2023/11/15 00:12:25;;;;;;;5.73;3.10;;;;;;;;;;5068319;28;20210;-55
2023/11/15 00:14:52;;;;;;;4.13;2.33;;;;;;;;;;5069904;28;20832;-54
2023/11/15 00:17:18;;;;;;;5.33;2.20;;;;;;;;;;5069218;28;20222;-55
2023/11/15 00:19:45;;;;;;;4.23;2.43;;;;;;;;;;5069717;28;20183;-56
2023/11/15 00:22:17;;;;;;;6.50;2.93;;;;;;;;;;5068041;28;20197;-55
2023/11/15 00:24:44;;;;;;;3.83;2.30;;;;;;;;;;5069196;28;20193;-56
2023/11/15 00:27:11;;;;;;;2.63;1.93;;;;;;;;;;5069373;28;20628;-57
2023/11/15 00:29:37;;;;;;;3.97;2.50;;;;;;;;;;5069989;28;20245;-56
2023/11/15 00:32:04;;;;;;;5.60;2.20;;;;;;;;;;5068242;28;20364;-56
2023/11/15 00:34:30;;;;;;;3.20;2.47;;;;;;;;;;5065568;28;20642;-54
2023/11/15 00:36:56;;;;;;;6.27;2.60;;;;;;;;;;5068745;28;20299;-55
2023/11/15 00:39:22;;;;;;;3.57;1.80;;;;;;;;;;5066272;28;20188;-54
2023/11/15 00:41:49;;;;;;;6.70;2.37;;;;;;;;;;5069381;28;20699;-55
2023/11/15 00:44:16;;;;;;;3.60;2.13;;;;;;;;;;5069793;28;20180;-54
2023/11/15 00:46:42;;;;;;;5.73;2.53;;;;;;;;;;5068012;28;20184;-54
2023/11/15 00:49:08;;;;;;;4.30;2.27;;;;;;;;;;5069466;28;20635;-54
2023/11/15 00:51:34;;;;;;;4.10;2.60;;;;;;;;;;5068396;28;20176;-55
2023/11/15 00:54:00;;;;;;;7.47;2.90;;;;;;;;;;5069323;28;20172;-55
2023/11/15 00:56:26;;;;;;;5.63;3.43;;;;;;;;;;5068135;28;20234;-55
2023/11/15 00:58:54;;;;;;;6.33;3.50;;;;;;;;;;5068327;28;20231;-56
2023/11/15 01:01:20;;;;;;;5.57;4.20;;;;;;;;;;5067711;28;20265;-55
2023/11/15 01:03:55;;;;;;;14.17;5.43;;;;;;;;;;5068392;28;20200;-55
2023/11/15 01:06:22;;;;;;;8.77;4.13;;;;;;;;;;5067504;28;20202;-56
2023/11/15 01:08:48;;;;;;;6.93;4.80;;;;;;;;;;5068007;28;20279;-56
2023/11/15 01:11:14;;;;;;;13.23;5.73;;;;;;;;;;5065915;28;20184;-56
2023/11/15 01:13:40;;;;;;;16.57;6.37;;;;;;;;;;5064060;28;20184;-55
2023/11/15 01:16:06;;;;;;;15.53;7.20;;;;;;;;;;5067865;28;20185;-55
2023/11/15 01:18:33;;;;;;;12.77;7.00;;;;;;;;;;5068267;28;20793;-55
2023/11/15 01:21:00;;;;;;;8.63;6.33;;;;;;;;;;5066978;28;20989;-55
2023/11/15 01:23:28;;;;;;;10.63;7.37;;;;;;;;;;5067940;28;20670;-55
2023/11/15 01:25:54;;;;;;;13.67;7.23;;;;;;;;;;5068160;28;20172;-55
2023/11/15 01:28:20;;;;;;;14.27;7.30;;;;;;;;;;5068196;28;20177;-54
2023/11/15 01:30:46;;;;;;;12.73;7.73;;;;;;;;;;5067448;28;20189;-56
2023/11/15 01:33:12;;;;;;;10.93;6.87;;;;;;;;;;5067141;28;20259;-56
2023/11/15 01:35:38;;;;;;;16.80;6.93;;;;;;;;;;5067266;28;20310;-56
2023/11/15 01:38:05;;;;;;;11.90;7.33;;;;;;;;;;5064217;28;20195;-56
2023/11/15 01:40:34;;;;;;;9.13;6.83;;;;;;;;;;5067151;28;20180;-56
2023/11/15 01:43:00;;;;;;;12.33;6.77;;;;;;;;;;5067532;28;20632;-55
2023/11/15 01:45:27;;;;;;;10.27;6.87;;;;;;;;;;5065876;28;20287;-54
2023/11/15 01:47:54;;;;;;;11.33;7.43;;;;;;;;;;5068008;28;20180;-54
2023/11/15 01:50:21;;;;;;;20.03;7.67;;;;;;;;;;5067463;28;20173;-54
2023/11/15 01:52:48;;;;;;;9.33;7.20;;;;;;;;;;5066441;28;20183;-54
2023/11/15 01:55:16;;;;;;;12.87;6.40;;;;;;;;;;5067085;28;20176;-54
2023/11/15 01:57:42;;;;;;;8.77;6.00;;;;;;;;;;5066463;28;20291;-54
2023/11/15 02:00:10;;;;;;;11.40;6.17;;;;;;;;;;5066376;28;20262;-55
2023/11/15 02:02:36;;;;;;;7.53;5.70;;;;;;;;;;5066909;28;20200;-55
2023/11/15 02:05:02;;;;;;;7.23;5.40;;;;;;;;;;5068012;28;20212;-55
2023/11/15 02:07:28;;;;;;;7.93;5.23;;;;;;;;;;5067619;28;20184;-56
2023/11/15 02:09:55;;;;;;;5.20;4.17;;;;;;;;;;5066515;28;20203;-56
2023/11/15 02:12:21;;;;;;;6.57;4.90;;;;;;;;;;5067005;28;20212;-56
2023/11/15 02:14:48;;;;;;;8.17;4.80;;;;;;;;;;5067412;28;20275;-56
2023/11/15 02:17:14;;;;;;;7.87;4.50;;;;;;;;;;5066598;28;20188;-56
2023/11/15 02:19:40;;;;;;;10.77;5.47;;;;;;;;;;5066791;28;20263;-55
2023/11/15 02:22:06;;;;;;;7.00;4.60;;;;;;;;;;5062170;28;20221;-56
2023/11/15 02:24:32;;;;;;;9.37;4.30;;;;;;;;;;5067428;28;20185;-55
2023/11/15 02:26:59;;;;;;;7.13;4.27;;;;;;;;;;5070447;28;20664;-56
2023/11/15 02:29:25;;;;;;;8.93;4.60;;;;;;;;;;5071143;28;20172;-56
2023/11/15 02:31:51;;;;;;;5.10;4.13;;;;;;;;;;5069233;28;20237;-56
2023/11/15 02:34:18;;;;;;;6.00;4.83;;;;;;;;;;5071249;28;20235;-56
2023/11/15 02:36:44;;;;;;;6.83;4.97;;;;;;;;;;5070878;28;20184;-56
2023/11/15 02:39:10;;;;;;;5.87;4.27;;;;;;;;;;5070148;28;20183;-56
2023/11/15 02:41:36;;;;;;;6.97;4.63;;;;;;;;;;5069628;28;20263;-56
2023/11/15 02:44:02;;;;;;;8.00;5.00;;;;;;;;;;5072013;28;20186;-56
2023/11/15 02:46:28;;;;;;;7.30;5.50;;;;;;;;;;5071242;28;20195;-58
2023/11/15 02:48:54;;;;;;;7.67;5.60;;;;;;;;;;5070394;28;20229;-56
2023/11/15 02:51:20;;;;;;;8.30;5.10;;;;;;;;;;5070432;28;20203;-56
2023/11/15 02:53:46;;;;;;;6.50;5.23;;;;;;;;;;5070928;28;20185;-56
2023/11/15 02:56:12;;;;;;;8.97;5.50;;;;;;;;;;5070594;28;20716;-56
2023/11/15 02:58:38;;;;;;;10.67;6.50;;;;;;;;;;5069673;28;20201;-56
2023/11/15 03:01:08;;;;;;;6.73;6.00;;;;;;;;;;5067273;28;20207;-55
2023/11/15 03:03:37;;;;;;;7.73;6.27;;;;;;;;;;5070941;28;20203;-56
2023/11/15 03:06:03;;;;;;;12.30;6.80;;;;;;;;;;5070334;28;20241;-56
2023/11/15 03:08:30;;;;;;;9.37;7.27;;;;;;;;;;5070864;28;20275;-56
2023/11/15 03:10:56;;;;;;;10.30;6.37;;;;;;;;;;5070341;28;20644;-56
2023/11/15 03:13:22;;;;;;;11.67;6.13;;;;;;;;;;5070422;28;20892;-56
2023/11/15 03:15:50;;;;;;;7.73;6.40;;;;;;;;;;5070164;28;20242;-57
2023/11/15 03:18:16;;;;;;;6.80;5.90;;;;;;;;;;5066140;28;20172;-56
2023/11/15 03:20:42;;;;;;;19.13;7.27;;;;;;;;;;5068134;28;20176;-56
2023/11/15 03:23:09;;;;;;;13.10;6.67;;;;;;;;;;5069360;28;20183;-55
2023/11/15 03:25:35;;;;;;;8.77;6.87;;;;;;;;;;5065205;28;20268;-56
2023/11/15 03:28:01;;;;;;;10.90;7.37;;;;;;;;;;5068677;28;20230;-55
2023/11/15 03:30:27;;;;;;;8.77;6.80;;;;;;;;;;5069311;28;20221;-56
2023/11/15 03:32:53;;;;;;;7.40;6.47;;;;;;;;;;5069322;28;20239;-56
2023/11/15 03:35:22;;;;;;;7.73;5.90;;;;;;;;;;5068234;28;20176;-55
2023/11/15 03:37:48;;;;;;;10.57;6.53;;;;;;;;;;5064731;28;20176;-56
2023/11/15 03:40:14;;;;;;;8.57;6.27;;;;;;;;;;5069828;28;20180;-56
2023/11/15 03:42:40;;;;;;;11.43;6.80;;;;;;;;;;5067295;28;20219;-56
2023/11/15 03:45:09;;;;;;;7.10;5.97;;;;;;;;;;5069160;28;20263;-56
2023/11/15 03:47:35;;;;;;;10.30;6.57;;;;;;;;;;5065929;28;20721;-56
2023/11/15 03:50:04;;;;;;;12.03;6.87;;;;;;;;;;5068639;28;20180;-56
2023/11/15 03:52:30;;;;;;;13.50;7.10;;;;;;;;;;5069072;28;20210;-55
2023/11/15 03:54:56;;;;;;;7.10;6.17;;;;;;;;;;5069836;28;20181;-56
2023/11/15 03:57:22;;;;;;;9.93;6.77;;;;;;;;;;5051463;28;20179;-56
2023/11/15 03:59:48;;;;;;;10.40;6.23;;;;;;;;;;5068414;28;20179;-56
2023/11/15 04:02:15;;;;;;;10.73;6.73;;;;;;;;;;5064918;28;20291;-56
2023/11/15 04:04:41;;;;;;;13.67;6.93;;;;;;;;;;5066790;28;20181;-56
2023/11/15 04:07:08;;;;;;;14.00;7.13;;;;;;;;;;5068392;28;20188;-56
2023/11/15 04:09:34;;;;;;;11.43;7.13;;;;;;;;;;5068952;28;20180;-56
2023/11/15 04:12:01;;;;;;;12.60;7.70;;;;;;;;;;5068052;28;20181;-56
2023/11/15 04:14:27;;;;;;;9.50;7.20;;;;;;;;;;5068699;28;20181;-56
2023/11/15 04:16:53;;;;;;;15.30;9.17;;;;;;;;;;5068322;28;20253;-56
2023/11/15 04:19:23;;;;;;;11.23;6.80;;;;;;;;;;5064691;28;20719;-56
2023/11/15 04:21:50;;;;;;;10.83;6.90;;;;;;;;;;5068079;28;20204;-56
2023/11/15 04:24:17;;;;;;;13.73;7.97;;;;;;;;;;5068632;28;20550;-56
2023/11/15 04:26:44;;;;;;;11.60;7.73;;;;;;;;;;5067226;28;20733;-56
2023/11/15 04:29:10;;;;;;;11.93;8.03;;;;;;;;;;5069904;28;20180;-56
2023/11/15 04:31:36;;;;;;;12.07;8.60;;;;;;;;;;5067991;28;20724;-56
2023/11/15 04:34:03;;;;;;;13.30;7.13;;;;;;;;;;5062856;28;20182;-56
2023/11/15 04:36:32;;;;;;;11.00;6.40;;;;;;;;;;5067576;28;20198;-56
2023/11/15 04:38:58;;;;;;;8.83;7.33;;;;;;;;;;5063523;28;20275;-56
2023/11/15 04:41:24;;;;;;;15.63;7.90;;;;;;;;;;5067588;28;20811;-56
2023/11/15 04:43:51;;;;;;;9.23;6.47;;;;;;;;;;5069016;28;20317;-56
2023/11/15 04:46:18;;;;;;;12.07;7.83;;;;;;;;;;5067484;28;20176;-56
2023/11/15 04:48:44;;;;;;;9.60;6.60;;;;;;;;;;5068515;28;20523;-56
2023/11/15 04:51:10;;;;;;;15.97;7.67;;;;;;;;;;5067876;28;20237;-57
2023/11/15 04:53:37;;;;;;;16.73;7.83;;;;;;;;;;5068458;28;20222;-56
2023/11/15 04:56:03;;;;;;;10.43;7.87;;;;;;;;;;5067000;28;20177;-58
2023/11/15 04:58:30;;;;;;;10.67;7.20;;;;;;;;;;5068981;28;20914;-57
2023/11/15 05:00:56;;;;;;;10.23;7.63;;;;;;;;;;5068533;28;20180;-57
2023/11/15 05:03:22;;;;;;;9.90;6.53;;;;;;;;;;5066472;28;20180;-57
2023/11/15 05:05:48;;;;;;;12.97;7.33;;;;;;;;;;5067647;28;20270;-56
2023/11/15 05:08:14;;;;;;;12.57;8.17;;;;;;;;;;5067852;28;20656;-56
2023/11/15 05:10:40;;;;;;;14.60;8.90;;;;;;;;;;5066526;28;20302;-57
2023/11/15 05:13:06;;;;;;;9.60;7.37;;;;;;;;;;5066826;28;20189;-57
2023/11/15 05:15:32;;;;;;;14.10;7.27;;;;;;;;;;5068001;28;20973;-56
2023/11/15 05:17:59;;;;;;;17.27;7.90;;;;;;;;;;5068320;28;20850;-57
2023/11/15 05:20:25;;;;;;;13.33;7.73;;;;;;;;;;5066252;28;20215;-56
2023/11/15 05:22:52;;;;;;;13.80;7.67;;;;;;;;;;5067155;28;20208;-56
2023/11/15 05:25:21;;;;;;;13.00;7.93;;;;;;;;;;5066658;28;20215;-56
2023/11/15 05:27:47;;;;;;;12.33;8.23;;;;;;;;;;5067378;28;20177;-57
2023/11/15 05:30:14;;;;;;;12.97;7.23;;;;;;;;;;5066293;28;21759;-57
2023/11/15 05:32:40;;;;;;;9.57;7.37;;;;;;;;;;5065673;28;20224;-56
2023/11/15 05:35:06;;;;;;;8.40;6.57;;;;;;;;;;5067038;28;20187;-56
2023/11/15 05:37:32;;;;;;;7.20;6.37;;;;;;;;;;5067361;28;20504;-57
2023/11/15 05:40:00;;;;;;;10.47;7.20;;;;;;;;;;5066480;28;20667;-56
2023/11/15 05:42:26;;;;;;;9.07;6.70;;;;;;;;;;5067739;28;20706;-56
2023/11/15 05:44:52;;;;;;;13.70;7.83;;;;;;;;;;5067192;28;20173;-57
2023/11/15 05:47:18;;;;;;;10.00;6.73;;;;;;;;;;5067474;28;20172;-56
2023/11/15 05:49:44;;;;;;;12.83;8.43;;;;;;;;;;5065989;28;20520;-56
2023/11/15 05:52:12;;;;;;;11.30;8.07;;;;;;;;;;5067291;28;20518;-56
2023/11/15 05:54:38;;;;;;;8.53;6.87;;;;;;;;;;5065343;28;20230;-56
2023/11/15 05:57:04;;;;;;;8.97;7.20;;;;;;;;;;5067044;28;20186;-56
2023/11/15 05:59:30;;;;;;;10.17;6.90;;;;;;;;;;5065463;28;20204;-56
2023/11/15 06:01:56;;;;;;;13.77;7.33;;;;;;;;;;5062354;28;20208;-56
2023/11/15 06:04:23;;;;;;;11.93;6.93;;;;;;;;;;5063658;28;20180;-56
2023/11/15 06:06:49;;;;;;;11.90;6.80;;;;;;;;;;5066528;28;20672;-56
2023/11/15 06:09:17;;;;;;;10.73;6.70;;;;;;;;;;5068446;28;20199;-56
2023/11/15 06:11:43;;;;;;;8.90;6.03;;;;;;;;;;5066201;28;20184;-56
2023/11/15 06:14:09;;;;;;;8.40;5.57;;;;;;;;;;5065738;28;20719;-56
2023/11/15 06:16:38;;;;;;;11.30;5.00;;;;;;;;;;5064536;28;20207;-56
2023/11/15 06:19:07;;;;;;;8.60;6.03;;;;;;;;;;5066128;28;20337;-56
2023/11/15 06:21:36;;;;;;;14.02;6.40;;;;;;;;;;5064527;28;20438;-56
2023/11/15 06:24:02;;;;;;;13.80;6.30;;;;;;;;;;5067187;28;20448;-56
2023/11/15 06:26:29;;;;;;;10.43;6.53;;;;;;;;;;5065258;28;20181;-55
2023/11/15 06:28:55;;;;;;;16.33;6.17;;;;;;;;;;5066487;28;20693;-56
2023/11/15 06:31:22;;;;;;;9.40;6.73;;;;;;;;;;5065281;28;20221;-56
2023/11/15 06:33:49;;;;;;;10.83;6.10;;;;;;;;;;5066281;28;20185;-56
2023/11/15 06:36:17;;;;;;;10.13;6.80;;;;;;;;;;5063417;28;20633;-55
2023/11/15 06:38:44;;;;;;;10.27;5.17;;;;;;;;;;5066370;28;20188;-56
2023/11/15 06:41:10;;;;;;;10.53;6.57;;;;;;;;;;5063307;28;20197;-56
2023/11/15 06:43:36;;;;;;;7.23;6.37;;;;;;;;;;5064479;28;20176;-56
2023/11/15 06:46:02;;;;;;;12.40;6.10;;;;;;;;;;5062137;28;20204;-56
2023/11/15 06:48:28;;;;;;;7.33;5.87;;;;;;;;;;5063801;28;20208;-56
2023/11/15 06:50:54;;;;;;;8.87;6.13;;;;;;;;;;5064425;28;20326;-56
2023/11/15 06:53:20;;;;;;;13.97;6.33;;;;;;;;;;5062782;28;20180;-55
2023/11/15 06:55:46;;;;;;;13.87;7.20;;;;;;;;;;5064419;28;20189;-55
2023/11/15 06:58:15;;;;;;;11.83;6.40;;;;;;;;;;5063930;28;20279;-55
2023/11/15 07:00:44;;;;;;;15.13;7.50;;;;;;;;;;5063727;28;20255;-54
2023/11/15 07:03:12;;;;;;;9.73;6.50;;;;;;;;;;5041288;28;20208;-54
2023/11/15 07:05:38;;;;;;;13.80;7.33;;;;;;;;;;5065471;28;20172;-55
2023/11/15 07:08:11;;;;;;;14.70;7.17;;;;;;;;;;5065556;28;20183;-55
2023/11/15 07:10:37;;;;;;;13.97;7.90;;;;;;;;;;5064987;28;20230;-56
2023/11/15 07:13:04;;;;;;;11.93;7.87;;;;;;;;;;5067839;28;20524;-56
2023/11/15 07:15:30;;;;;;;12.23;6.67;;;;;;;;;;5069170;28;20683;-57
2023/11/15 07:17:57;;;;;;;15.47;8.37;;;;;;;;;;5066717;28;20189;-56
2023/11/15 07:20:23;;;;;;;18.23;9.13;;;;;;;;;;5066063;28;20221;-57
2023/11/15 07:22:49;;;;;;;19.40;8.30;;;;;;;;;;5066877;28;20207;-57
2023/11/15 07:25:18;;;;;;;10.03;7.70;;;;;;;;;;5066571;28;20177;-56
2023/11/15 07:27:44;;;;;;;16.43;7.87;;;;;;;;;;5068380;28;20226;-56
2023/11/15 07:30:12;;;;;;;18.63;8.13;;;;;;;;;;5069076;28;20196;-56
2023/11/15 07:32:38;;;;;;;12.73;7.47;;;;;;;;;;5069834;28;20228;-56
2023/11/15 07:35:05;;;;;;;11.00;6.50;;;;;;;;;;5066783;28;20188;-56
2023/11/15 07:37:31;;;;;;;13.40;6.93;;;;;;;;;;5069449;28;20206;-55
2023/11/15 07:39:57;;;;;;;14.97;6.73;;;;;;;;;;5068790;28;20193;-56
2023/11/15 07:42:24;;;;;;;15.73;6.30;;;;;;;;;;5070162;28;20681;-56
2023/11/15 07:44:51;;;;;;;15.30;5.90;;;;;;;;;;5067745;28;20188;-56
2023/11/15 07:47:17;;;;;;;12.63;6.90;;;;;;;;;;5070907;28;20257;-56
2023/11/15 07:49:44;;;;;;;12.17;7.00;;;;;;;;;;5068095;28;20173;-56
2023/11/15 07:52:11;;;;;;;14.30;7.73;;;;;;;;;;5068917;28;20249;-56
2023/11/15 07:54:37;;;;;;;13.37;6.67;;;;;;;;;;5069324;28;20185;-56
2023/11/15 07:57:06;;;;;;;15.50;8.00;;;;;;;;;;5068427;28;20191;-56
2023/11/15 07:59:32;;;;;;;20.57;9.20;;;;;;;;;;5068592;28;20227;-56
2023/11/15 08:01:58;;;;;;;15.37;8.77;;;;;;;;;;5068903;28;20671;-56
2023/11/15 08:04:26;;;;;;;11.00;8.20;;;;;;;;;;5066924;28;20595;-56
2023/11/15 08:06:52;;;;;;;12.63;7.63;;;;;;;;;;5050607;28;20169;-56
2023/11/15 08:09:25;;;;;;;13.10;8.20;;;;;;;;;;5051010;28;20188;-56
2023/11/15 08:11:55;;;;;;;13.13;7.27;;;;;;;;;;5068161;28;20644;-56
2023/11/15 08:14:21;;;;;;;18.20;7.63;;;;;;;;;;5068056;28;20181;-55
2023/11/15 08:16:48;;;;;;;17.83;7.43;;;;;;;;;;5066457;28;20189;-55
2023/11/15 08:19:14;;;;;;;16.20;8.07;;;;;;;;;;5065685;28;20177;-56
2023/11/15 08:21:41;;;;;;;14.47;8.30;;;;;;;;;;5067546;28;20354;-56
2023/11/15 08:24:07;;;;;;;15.53;7.67;;;;;;;;;;5067176;28;20542;-56
2023/11/15 08:26:33;;;;;;;16.53;6.97;;;;;;;;;;5068683;28;20180;-56
2023/11/15 08:28:59;;;;;;;15.17;7.03;;;;;;;;;;5066600;28;20180;-56
2023/11/15 08:31:28;;;;;;;12.30;6.73;;;;;;;;;;5066739;28;20227;-56
2023/11/15 08:33:54;;;;;;;13.53;6.67;;;;;;;;;;5068388;28;20180;-56
2023/11/15 08:36:20;;;;;;;16.40;7.20;;;;;;;;;;5068409;28;20187;-56
2023/11/15 08:38:46;;;;;;;12.80;7.00;;;;;;;;;;5066676;28;20699;-56
2023/11/15 08:41:16;;;;;;;14.03;6.80;;;;;;;;;;5068182;28;20192;-56
2023/11/15 08:43:42;;;;;;;13.83;7.43;;;;;;;;;;5067563;28;20169;-56
2023/11/15 08:46:08;;;;;;;12.47;6.80;;;;;;;;;;5045752;28;20177;-56
2023/11/15 08:48:35;;;;;;;15.30;8.13;;;;;;;;;;5069352;28;20181;-56
2023/11/15 08:51:04;;;;;;;16.70;7.87;;;;;;;;;;5067414;28;21381;-56
2023/11/15 08:53:30;;;;;;;10.30;7.37;;;;;;;;;;5067799;28;20208;-56
2023/11/15 08:55:56;;;;;;;10.77;6.33;;;;;;;;;;5064622;28;20172;-56
2023/11/15 08:58:27;;;;;;;11.00;6.33;;;;;;;;;;5068940;28;20192;-56
2023/11/15 09:00:57;;;;;;;12.53;7.10;;;;;;;;;;5066493;28;22234;-56
2023/11/15 09:03:23;;;;;;;15.37;7.37;;;;;;;;;;5049746;28;20553;-56
2023/11/15 09:05:51;;;;;;;9.80;6.83;;;;;;;;;;5067311;28;20172;-56
2023/11/15 09:08:17;;;;;;;13.03;7.00;;;;;;;;;;5069009;28;20655;-56
2023/11/15 09:10:43;;;;;;;15.23;7.87;;;;;;;;;;5065457;28;20180;-56
2023/11/15 09:13:09;;;;;;;17.20;8.43;;;;;;;;;;5067500;28;20184;-55
2023/11/15 09:15:40;;;;;;;10.13;6.97;;;;;;;;;;5066352;28;20270;-56
2023/11/15 09:18:10;;;;;;;16.90;7.70;;;;;;;;;;5065394;28;20332;-56
2023/11/15 09:20:37;;;;;;;14.40;8.20;;;;;;;;;;5065990;28;20187;-56
2023/11/15 09:23:06;;;;;;;13.60;7.23;;;;;;;;;;5061654;28;20204;-56
2023/11/15 09:25:35;;;;;;;13.60;7.37;;;;;;;;;;5067432;28;20230;-56
2023/11/15 09:28:04;;;;;;;11.33;7.00;;;;;;;;;;5066857;28;20179;-56
2023/11/15 09:30:31;;;;;;;10.87;5.83;;;;;;;;;;5067267;28;20184;-55
2023/11/15 09:32:57;;;;;;;12.07;5.57;;;;;;;;;;5067202;28;20707;-55
2023/11/15 09:35:29;;;;;;;10.53;7.57;;;;;;;;;;5064933;28;20246;-56
2023/11/15 09:37:58;;;;;;;11.13;6.70;;;;;;;;;;5067070;28;20245;-56
2023/11/15 09:40:24;;;;;;;12.77;7.53;;;;;;;;;;5066643;28;20184;-56
2023/11/15 09:42:52;;;;;;;15.23;6.10;;;;;;;;;;5067438;28;20562;-56
2023/11/15 09:45:19;;;;;;;7.30;5.67;;;;;;;;;;5066110;28;20173;-56
2023/11/15 09:47:48;;;;;;;9.83;5.60;;;;;;;;;;5068111;28;20177;-56
2023/11/15 09:50:17;;;;;;;9.27;6.17;;;;;;;;;;5068129;28;20203;-56
2023/11/15 09:52:47;;;;;;;9.87;5.10;;;;;;;;;;5066764;28;20185;-56
2023/11/15 09:55:13;;;;;;;12.70;5.10;;;;;;;;;;5065381;28;20331;-56
2023/11/15 09:57:40;;;;;;;8.90;6.77;;;;;;;;;;5067793;28;20263;-56
2023/11/15 10:00:09;;;;;;;9.20;4.73;;;;;;;;;;5066715;28;20178;-56
2023/11/15 10:02:37;;;;;;;12.70;5.77;;;;;;;;;;5067087;28;20197;-56
2023/11/15 10:05:14;;;;;;;13.13;4.83;;;;;;;;;;5066322;28;20592;-56
2023/11/15 10:07:40;;;;;;;11.40;5.17;;;;;;;;;;5065140;28;20178;-56
2023/11/15 10:10:18;;;;;;;6.60;4.17;;;;;;;;;;5067690;28;20177;-56
2023/11/15 10:12:45;;;;;;;11.63;4.50;;;;;;;;;;5067587;28;20703;-56
2023/11/15 10:15:13;;;;;;;8.93;4.67;;;;;;;;;;5066289;28;20653;-56
2023/11/15 10:17:46;;;;;;;7.13;4.20;;;;;;;;;;5067985;28;20185;-56
2023/11/15 10:20:30;;;;;;;8.00;4.33;;;;;;;;;;5066558;28;20636;-56
2023/11/15 10:22:57;;;;;;;10.37;4.67;;;;;;;;;;5043384;28;20274;-56
2023/11/15 10:25:26;;;;;;;9.27;4.07;;;;;;;;;;5066675;28;20642;-56
2023/11/15 10:27:55;;;;;;;12.97;6.10;;;;;;;;;;5065668;28;20172;-56
2023/11/15 10:30:22;;;;;;;17.67;6.50;;;;;;;;;;5067055;28;20564;-56
2023/11/15 10:32:48;;;;;;;12.23;6.67;;;;;;;;;;5066790;28;20216;-57
2023/11/15 10:35:27;;;;;;;12.13;5.27;;;;;;;;;;5066527;28;20243;-56
2023/11/15 10:37:54;;;;;;;10.83;4.47;;;;;;;;;;5066225;28;20176;-56
2023/11/15 10:40:25;;;;;;;10.80;6.17;;;;;;;;;;5063776;28;20172;-56
2023/11/15 10:42:52;;;;;;;10.90;5.03;;;;;;;;;;5064181;28;20192;-57
2023/11/15 10:45:19;;;;;;;9.40;4.27;;;;;;;;;;5064041;28;20183;-56
2023/11/15 10:48:04;;;;;;;9.40;4.80;;;;;;;;;;5068012;28;20268;-56
2023/11/15 10:50:34;;;;;;;16.23;6.63;;;;;;;;;;5071021;28;20219;-56
2023/11/15 10:53:02;;;;;;;10.83;4.80;;;;;;;;;;5071631;28;20183;-54
2023/11/15 10:55:28;;;;;;;7.53;4.20;;;;;;;;;;5070178;28;20184;-55
2023/11/15 10:58:02;;;;;;;13.23;4.63;;;;;;;;;;5070795;28;20242;-55
2023/11/15 11:00:30;;;;;;;7.20;4.27;;;;;;;;;;5071265;28;20235;-55
2023/11/15 11:02:56;;;;;;;15.67;5.37;;;;;;;;;;5070106;28;20279;-55
2023/11/15 11:05:30;;;;;;;12.90;4.90;;;;;;;;;;5072514;28;20184;-55
2023/11/15 11:07:58;;;;;;;11.77;5.27;;;;;;;;;;5072337;28;20172;-55
2023/11/15 11:10:33;;;;;;;14.90;4.27;;;;;;;;;;5068600;28;20233;-55
2023/11/15 11:12:59;;;;;;;8.10;4.10;;;;;;;;;;5076361;28;20581;-54
2023/11/15 11:15:27;;;;;;;18.63;5.43;;;;;;;;;;5066388;28;20181;-55
2023/11/15 11:18:13;;;;;;;12.27;4.77;;;;;;;;;;5069252;28;20705;-55
2023/11/15 11:20:41;;;;;;;9.53;3.73;;;;;;;;;;5068550;28;20199;-55
2023/11/15 11:23:08;;;;;;;9.80;4.60;;;;;;;;;;5069924;28;20644;-56
2023/11/15 11:25:35;;;;;;;7.30;3.50;;;;;;;;;;5061844;28;20187;-55
2023/11/15 11:28:01;;;;;;;6.67;3.53;;;;;;;;;;5071494;28;20180;-55
2023/11/15 11:30:28;;;;;;;9.00;4.00;;;;;;;;;;5067663;28;20188;-55
2023/11/15 11:33:09;;;;;;;17.77;4.47;;;;;;;;;;5066908;28;20617;-55
2023/11/15 11:35:36;;;;;;;10.70;4.23;;;;;;;;;;5068732;28;20279;-54
2023/11/15 11:38:04;;;;;;;10.27;4.23;;;;;;;;;;5071031;28;20192;-55
2023/11/15 11:40:32;;;;;;;10.57;4.97;;;;;;;;;;5069072;28;20226;-55
2023/11/15 11:43:15;;;;;;;9.77;4.40;;;;;;;;;;5068788;28;20211;-55
2023/11/15 11:45:41;;;;;;;10.13;4.87;;;;;;;;;;5067751;28;20179;-55
2023/11/15 11:48:15;;;;;;;15.47;4.63;;;;;;;;;;5052028;28;20271;-54
2023/11/15 11:50:51;;;;;;;7.30;4.47;;;;;;;;;;5067596;28;20264;-54
2023/11/15 11:53:18;;;;;;;9.60;4.50;;;;;;;;;;5071337;28;20180;-55
2023/11/15 11:55:44;;;;;;;32.30;19.67;;;;;;;;;;5070657;28;20210;-54
2023/11/15 11:58:10;;;;;;;10.70;4.73;;;;;;;;;;5070623;28;20232;-54
2023/11/15 12:00:39;;;;;;;12.20;4.67;;;;;;;;;;5071290;28;20169;-54
2023/11/15 12:03:09;;;;;;;6.87;3.73;;;;;;;;;;5060691;28;20219;-55
2023/11/15 12:05:36;;;;;;;9.13;3.73;;;;;;;;;;5058055;28;20245;-55
2023/11/15 12:08:02;;;;;;;10.23;4.60;;;;;;;;;;5058880;28;20180;-54
2023/11/15 12:10:28;;;;;;;5.80;3.87;;;;;;;;;;5070159;28;20183;-56
2023/11/15 12:12:59;;;;;;;9.73;4.33;;;;;;;;;;5067291;28;20660;-56
2023/11/15 12:15:25;;;;;;;11.07;3.87;;;;;;;;;;5070352;28;20184;-55
2023/11/15 12:17:53;;;;;;;8.47;3.30;;;;;;;;;;5068080;28;20176;-56
2023/11/15 12:20:39;;;;;;;5.83;3.63;;;;;;;;;;5070485;28;20714;-55
2023/11/15 12:23:12;;;;;;;8.10;3.83;;;;;;;;;;5067811;28;20208;-55
2023/11/15 12:25:48;;;;;;;5.87;3.73;;;;;;;;;;5070197;28;20613;-54
2023/11/15 12:28:15;;;;;;;10.30;4.13;;;;;;;;;;5070946;28;20169;-54
2023/11/15 12:30:42;;;;;;;11.53;4.70;;;;;;;;;;5070508;28;20188;-55
2023/11/15 12:33:09;;;;;;;8.93;3.67;;;;;;;;;;5071043;28;20180;-56
2023/11/15 12:35:36;;;;;;;10.67;5.47;;;;;;;;;;5070905;28;20181;-55
2023/11/15 12:38:05;;;;;;;8.57;3.67;;;;;;;;;;5071344;28;20235;-55
2023/11/15 12:40:34;;;;;;;8.10;3.33;;;;;;;;;;5070648;28;20717;-55
2023/11/15 12:43:12;;;;;;;10.73;4.03;;;;;;;;;;5070776;28;20192;-55
2023/11/15 12:45:39;;;;;;;7.80;3.30;;;;;;;;;;5069964;28;20549;-55
2023/11/15 12:48:08;;;;;;;8.43;3.73;;;;;;;;;;5070738;28;20165;-54
2023/11/15 12:50:35;;;;;;;5.93;3.27;;;;;;;;;;5070878;28;20502;-54
2023/11/15 12:53:05;;;;;;;4.03;3.27;;;;;;;;;;5071283;28;20641;-54
2023/11/15 12:55:46;;;;;;;9.00;4.17;;;;;;;;;;5069973;28;20553;-55
2023/11/15 12:58:22;;;;;;;11.40;4.43;;;;;;;;;;5061079;28;20732;-55
2023/11/15 13:00:59;;;;;;;6.53;3.53;;;;;;;;;;5069393;28;20180;-55
2023/11/15 13:03:26;;;;;;;10.23;4.53;;;;;;;;;;5062129;28;20690;-54
2023/11/15 13:06:07;;;;;;;8.43;3.83;;;;;;;;;;5069057;28;20179;-54
2023/11/15 13:08:33;;;;;;;5.97;3.37;;;;;;;;;;5070044;28;20521;-54
2023/11/15 13:10:59;;;;;;;10.50;4.07;;;;;;;;;;5070303;28;20554;-55
2023/11/15 13:13:25;;;;;;;15.67;3.93;;;;;;;;;;5070101;28;20188;-55
2023/11/15 13:15:52;;;;;;;9.37;4.63;;;;;;;;;;5069682;28;20217;-54
2023/11/15 13:18:18;;;;;;;6.00;3.63;;;;;;;;;;5070388;28;20184;-55
2023/11/15 13:20:45;;;;;;;8.47;3.17;;;;;;;;;;5070179;28;20775;-54
2023/11/15 13:23:11;;;;;;;6.37;4.00;;;;;;;;;;5069958;28;20536;-55
2023/11/15 13:25:38;;;;;;;15.17;3.90;;;;;;;;;;5070059;28;20636;-55
2023/11/15 13:28:04;;;;;;;7.13;3.93;;;;;;;;;;5070130;28;20636;-55
2023/11/15 13:30:31;;;;;;;6.53;4.13;;;;;;;;;;5069755;28;20173;-54
2023/11/15 13:32:57;;;;;;;9.43;4.63;;;;;;;;;;5070212;28;20251;-55
2023/11/15 13:35:24;;;;;;;11.47;4.30;;;;;;;;;;5051782;28;20172;-54
2023/11/15 13:37:50;;;;;;;10.27;4.10;;;;;;;;;;5070327;28;20510;-54
2023/11/15 13:40:19;;;;;;;7.90;4.30;;;;;;;;;;5070328;28;20310;-55
2023/11/15 13:42:45;;;;;;;10.07;4.53;;;;;;;;;;5070051;28;20249;-55
2023/11/15 13:45:13;;;;;;;7.97;4.23;;;;;;;;;;5069318;28;20515;-56
2023/11/15 13:47:39;;;;;;;5.83;3.77;;;;;;;;;;5070516;28;20165;-55
2023/11/15 13:50:07;;;;;;;6.43;3.17;;;;;;;;;;5069957;28;20488;-55
2023/11/15 13:52:33;;;;;;;11.40;4.77;;;;;;;;;;5070217;28;20242;-55
2023/11/15 13:54:59;;;;;;;4.97;3.50;;;;;;;;;;5069981;28;20181;-55
2023/11/15 13:57:25;;;;;;;6.53;4.03;;;;;;;;;;5070324;28;20173;-55
2023/11/15 13:59:51;;;;;;;7.60;3.53;;;;;;;;;;5069630;28;20203;-55
2023/11/15 14:02:18;;;;;;;7.77;3.00;;;;;;;;;;5069996;28;20224;-56
2023/11/15 14:04:44;;;;;;;9.03;3.33;;;;;;;;;;5069545;28;20180;-55
2023/11/15 14:07:10;;;;;;;4.70;3.33;;;;;;;;;;5069656;28;20574;-55
2023/11/15 14:09:36;;;;;;;9.50;3.60;;;;;;;;;;5069901;28;20181;-55
2023/11/15 14:12:04;;;;;;;6.33;3.07;;;;;;;;;;5070459;28;20627;-55
2023/11/15 14:14:31;;;;;;;5.77;3.50;;;;;;;;;;5069646;28;20180;-55
2023/11/15 14:16:59;;;;;;;6.17;3.53;;;;;;;;;;5069544;28;20584;-55
2023/11/15 14:19:26;;;;;;;5.07;2.67;;;;;;;;;;5069246;28;20184;-55
2023/11/15 14:21:52;;;;;;;11.53;3.53;;;;;;;;;;5070726;28;20204;-55
2023/11/15 14:24:18;;;;;;;5.53;3.57;;;;;;;;;;5072602;28;20181;-56
2023/11/15 14:26:44;;;;;;;8.30;3.97;;;;;;;;;;5072470;28;20643;-55
2023/11/15 14:29:10;;;;;;;4.33;3.23;;;;;;;;;;5068716;28;20191;-56
2023/11/15 14:31:39;;;;;;;4.60;3.03;;;;;;;;;;5073504;28;20282;-55
2023/11/15 14:34:07;;;;;;;8.40;4.30;;;;;;;;;;5073344;28;20172;-56
2023/11/15 14:36:37;;;;;;;12.83;3.53;;;;;;;;;;5073579;28;20176;-55